Time;durP1;ratioP1;P1;durP2;ratioP2;P2;SDS_P1;SDS_P2;PMS_P1;PMS_P2;Temp;Humidity;BMP_temperature;BMP_pressure;BME280_temperature;BME280_humidity;BME280_pressure;Samples;Min_cycle;Max_cycle;Signal;HPM_P1;HPM_P2
2022/02/15 00:00:56;;;;;;;2.67;1.20;;;9.60;99.90;;;;;;5118981;28;20541;-88
2022/02/15 00:03:23;;;;;;;2.83;1.07;;;9.60;99.90;;;;;;5118627;28;20557;-88
2022/02/15 00:05:50;;;;;;;2.60;0.87;;;9.70;99.90;;;;;;5119957;28;20524;-88
2022/02/15 00:08:17;;;;;;;2.77;1.17;;;9.70;99.90;;;;;;5121966;28;20505;-87
2022/02/15 00:10:47;;;;;;;3.40;1.27;;;9.60;99.90;;;;;;5124785;28;20794;-87
2022/02/15 00:13:14;;;;;;;2.70;1.00;;;9.50;99.90;;;;;;5129139;28;20427;-88
2022/02/15 00:15:41;;;;;;;2.97;1.10;;;9.50;99.90;;;;;;5123745;28;20405;-88
2022/02/15 00:18:09;;;;;;;3.80;1.00;;;9.60;99.90;;;;;;5127872;28;20477;-88
2022/02/15 00:20:36;;;;;;;3.13;1.10;;;9.60;99.90;;;;;;5130393;28;20450;-88
2022/02/15 00:23:03;;;;;;;3.47;1.10;;;9.60;99.90;;;;;;5121920;28;20498;-88
2022/02/15 00:25:30;;;;;;;4.17;1.20;;;9.60;99.90;;;;;;5120190;28;20446;-89
2022/02/15 00:27:58;;;;;;;3.23;1.13;;;9.60;99.90;;;;;;5117624;28;20899;-89
2022/02/15 00:30:25;;;;;;;2.73;0.93;;;9.60;99.90;;;;;;5118595;28;20464;-89
2022/02/15 00:32:52;;;;;;;2.93;1.07;;;9.60;99.90;;;;;;5118238;28;20495;-90
2022/02/15 00:35:20;;;;;;;4.00;1.20;;;9.50;99.90;;;;;;5117462;28;20449;-88
2022/02/15 00:37:47;;;;;;;3.30;1.60;;;9.50;99.90;;;;;;5117560;28;20433;-89
2022/02/15 00:40:14;;;;;;;5.20;1.37;;;9.50;99.90;;;;;;5123476;28;20550;-89
2022/02/15 00:42:42;;;;;;;3.53;1.57;;;9.40;99.90;;;;;;5123589;28;21005;-89
2022/02/15 00:45:18;;;;;;;3.97;1.43;;;9.40;99.90;;;;;;5133927;28;20438;-89
2022/02/15 00:47:46;;;;;;;3.63;1.70;;;9.40;99.90;;;;;;5123963;28;20485;-89
2022/02/15 00:50:13;;;;;;;2.90;1.37;;;9.40;99.90;;;;;;5132341;28;20453;-89
2022/02/15 00:52:40;;;;;;;3.57;1.67;;;9.40;99.90;;;;;;5121393;28;20469;-89
2022/02/15 00:55:08;;;;;;;3.70;1.53;;;9.30;99.90;;;;;;5120868;28;20488;-88
2022/02/15 00:57:36;;;;;;;2.73;1.27;;;9.30;99.90;;;;;;5126298;28;20970;-89
2022/02/15 01:00:04;;;;;;;5.67;1.70;;;9.40;99.90;;;;;;5124313;28;20518;-89
2022/02/15 01:02:35;;;;;;;3.13;1.40;;;9.30;99.90;;;;;;5123435;28;20529;-88
2022/02/15 01:05:02;;;;;;;6.67;2.97;;;9.30;99.90;;;;;;5132394;28;20468;-89
2022/02/15 01:07:29;;;;;;;2.83;1.33;;;9.40;99.90;;;;;;5139224;28;20507;-89
2022/02/15 01:09:56;;;;;;;3.50;1.60;;;9.30;99.90;;;;;;5139635;28;20452;-90
2022/02/15 01:12:23;;;;;;;3.93;1.73;;;9.40;99.90;;;;;;5137326;28;20433;-89
2022/02/15 01:14:50;;;;;;;4.17;2.00;;;9.30;99.90;;;;;;5128980;28;20518;-88
2022/02/15 01:17:16;;;;;;;3.77;1.67;;;9.20;99.90;;;;;;5125466;28;20469;-88
2022/02/15 01:19:45;;;;;;;3.70;1.87;;;9.10;99.90;;;;;;5134788;28;20421;-88
2022/02/15 01:22:12;;;;;;;3.67;1.87;;;9.10;99.90;;;;;;5130464;28;20424;-87
2022/02/15 01:24:39;;;;;;;3.63;1.53;;;9.00;99.90;;;;;;5129694;28;20480;-89
2022/02/15 01:27:05;;;;;;;4.57;1.70;;;9.00;99.90;;;;;;5126362;28;20458;-88
2022/02/15 01:29:32;;;;;;;3.20;1.80;;;8.90;99.90;;;;;;5127833;28;20488;-88
2022/02/15 01:31:59;;;;;;;5.90;2.17;;;8.90;99.90;;;;;;5125599;28;20434;-88
2022/02/15 01:34:26;;;;;;;3.93;2.00;;;9.00;99.90;;;;;;5125120;28;20518;-88
2022/02/15 01:36:55;;;;;;;3.13;1.50;;;9.00;99.90;;;;;;5129523;28;20484;-88
2022/02/15 01:39:22;;;;;;;3.33;1.57;;;9.00;99.90;;;;;;5130263;28;20454;-87
2022/02/15 01:41:49;;;;;;;3.37;1.40;;;8.90;99.90;;;;;;5132372;28;20452;-89
2022/02/15 01:44:18;;;;;;;3.50;1.70;;;8.90;99.90;;;;;;5133550;28;20503;-88
2022/02/15 01:46:45;;;;;;;3.63;1.60;;;9.00;99.90;;;;;;5129337;28;20477;-89
2022/02/15 01:49:12;;;;;;;3.40;1.67;;;9.00;99.90;;;;;;5124954;28;20548;-87
2022/02/15 01:51:39;;;;;;;4.33;1.70;;;8.90;99.90;;;;;;5126891;28;20472;-88
2022/02/15 01:54:07;;;;;;;3.70;1.60;;;8.80;99.90;;;;;;5124793;28;20437;-88
2022/02/15 01:56:34;;;;;;;3.33;1.67;;;8.80;99.90;;;;;;5127206;28;20442;-87
2022/02/15 01:59:01;;;;;;;3.97;1.93;;;8.90;99.90;;;;;;5133358;28;20492;-88
2022/02/15 02:01:28;;;;;;;3.40;1.80;;;8.80;99.90;;;;;;5136170;28;20449;-88
2022/02/15 02:03:55;;;;;;;4.93;1.50;;;8.90;99.90;;;;;;5125609;28;20481;-88
2022/02/15 02:06:21;;;;;;;3.03;1.57;;;8.80;99.90;;;;;;5127550;28;20459;-87
2022/02/15 02:08:49;;;;;;;4.10;1.57;;;8.80;99.90;;;;;;5130364;28;20469;-88
2022/02/15 02:11:17;;;;;;;3.87;1.70;;;8.80;99.90;;;;;;5136185;28;20434;-89
2022/02/15 02:13:44;;;;;;;4.33;1.90;;;8.90;99.90;;;;;;5140650;28;20434;-88
2022/02/15 02:16:11;;;;;;;5.30;1.63;;;8.80;99.90;;;;;;5130615;28;20521;-88
2022/02/15 02:18:38;;;;;;;3.87;1.80;;;8.80;99.90;;;;;;5130358;28;20457;-89
2022/02/15 02:21:07;;;;;;;3.70;1.57;;;8.80;99.90;;;;;;5135681;28;20426;-88
2022/02/15 02:23:35;;;;;;;4.93;1.50;;;8.90;99.90;;;;;;5139568;28;20454;-90
2022/02/15 02:26:02;;;;;;;3.53;1.20;;;8.90;99.90;;;;;;5139430;28;20450;-88
2022/02/15 02:28:32;;;;;;;6.40;1.50;;;8.80;99.90;;;;;;5134321;28;20436;-89
2022/02/15 02:30:59;;;;;;;3.58;1.70;;;8.70;99.90;;;;;;5124399;28;20532;-89
2022/02/15 02:33:26;;;;;;;4.77;1.80;;;8.60;99.90;;;;;;5122364;28;20289;-89
2022/02/15 02:35:59;;;;;;;3.87;1.73;;;8.60;99.90;;;;;;5120528;28;20472;-88
2022/02/15 02:38:28;;;;;;;3.30;1.50;;;8.60;99.90;;;;;;5135637;22;20517;-87
2022/02/15 02:40:54;;;;;;;4.33;1.50;;;8.70;99.90;;;;;;5096302;28;20541;-87
2022/02/15 02:43:21;;;;;;;3.93;1.60;;;8.70;99.90;;;;;;5096069;28;20478;-87
2022/02/15 02:45:48;;;;;;;4.40;1.47;;;8.70;99.90;;;;;;5106927;28;20470;-87
2022/02/15 02:48:17;;;;;;;3.80;2.10;;;8.60;99.90;;;;;;5121009;28;20477;-87
2022/02/15 02:50:44;;;;;;;3.70;1.70;;;8.50;99.90;;;;;;5125985;28;20472;-87
2022/02/15 02:53:11;;;;;;;3.10;1.10;;;8.60;99.90;;;;;;5118536;28;20455;-87
2022/02/15 02:55:39;;;;;;;3.03;1.30;;;8.60;99.90;;;;;;5118976;28;20536;-87
2022/02/15 02:58:06;;;;;;;3.70;1.80;;;8.60;99.90;;;;;;5117810;28;20306;-87
2022/02/15 03:00:34;;;;;;;2.70;1.10;;;8.60;99.90;;;;;;5124010;28;20436;-87
2022/02/15 03:03:07;;;;;;;4.00;1.60;;;8.70;99.90;;;;;;5120859;28;20605;-87
2022/02/15 03:05:34;;;;;;;6.83;2.10;;;8.70;99.90;;;;;;5116468;28;20423;-86
2022/02/15 03:08:01;;;;;;;6.00;1.83;;;8.70;99.90;;;;;;5115803;28;20518;-88
2022/02/15 03:10:28;;;;;;;3.90;1.70;;;8.70;99.90;;;;;;5116348;28;20528;-87
2022/02/15 03:12:56;;;;;;;3.73;1.77;;;8.60;99.90;;;;;;5125728;28;20469;-87
2022/02/15 03:15:23;;;;;;;4.03;1.70;;;8.60;99.90;;;;;;5125762;28;20432;-86
2022/02/15 03:17:50;;;;;;;4.20;2.20;;;8.60;99.90;;;;;;5139144;28;20469;-87
2022/02/15 03:20:17;;;;;;;4.03;1.73;;;8.60;99.90;;;;;;5137382;27;20491;-88
2022/02/15 03:22:44;;;;;;;4.50;2.17;;;8.70;99.90;;;;;;5126799;28;20447;-89
2022/02/15 03:25:11;;;;;;;3.10;1.53;;;8.70;99.90;;;;;;5135481;28;20548;-88
2022/02/15 03:27:39;;;;;;;3.77;1.50;;;8.70;99.90;;;;;;5118977;28;20953;-88
2022/02/15 03:30:08;;;;;;;3.83;1.60;;;8.70;99.90;;;;;;5117459;28;20550;-88
2022/02/15 03:32:39;;;;;;;3.80;1.80;;;8.70;99.90;;;;;;5116955;28;20453;-88
2022/02/15 03:35:07;;;;;;;3.80;1.60;;;8.60;99.90;;;;;;5117366;28;20433;-88
2022/02/15 03:37:34;;;;;;;5.50;1.97;;;8.60;99.90;;;;;;5117112;28;20491;-88
2022/02/15 03:40:01;;;;;;;4.30;1.97;;;8.60;99.90;;;;;;5120057;28;20517;-87
2022/02/15 03:45:14;;;;;;;3.43;1.80;;;8.70;99.90;;;;;;5130729;28;20561;-88
2022/02/15 03:47:41;;;;;;;3.73;1.40;;;8.60;99.90;;;;;;5120184;28;20437;-88
2022/02/15 03:50:09;;;;;;;5.27;1.60;;;8.60;99.90;;;;;;5116620;28;20811;-88
2022/02/15 03:52:36;;;;;;;3.40;1.40;;;8.60;99.90;;;;;;5115216;28;20464;-87
2022/02/15 03:55:03;;;;;;;4.30;2.00;;;8.70;99.90;;;;;;5116271;28;20453;-87
2022/02/15 03:57:34;;;;;;;4.33;1.60;;;8.70;99.90;;;;;;5115962;28;20307;-87
2022/02/15 04:00:01;;;;;;;3.60;1.30;;;8.80;99.90;;;;;;5116506;28;20441;-87
2022/02/15 04:02:31;;;;;;;5.80;1.43;;;8.70;99.90;;;;;;5115437;28;20539;-87
2022/02/15 04:04:57;;;;;;;3.57;1.90;;;8.70;99.90;;;;;;5114862;28;20521;-87
2022/02/15 04:07:24;;;;;;;6.03;1.93;;;8.70;99.90;;;;;;5114766;28;20511;-87
2022/02/15 04:09:51;;;;;;;4.37;1.93;;;8.70;99.90;;;;;;5114402;28;20480;-88
2022/02/15 04:12:18;;;;;;;4.47;1.43;;;8.70;99.90;;;;;;5114984;28;20455;-88
2022/02/15 04:14:45;;;;;;;6.13;1.80;;;8.70;99.90;;;;;;5115291;28;20489;-88
2022/02/15 04:17:12;;;;;;;4.30;1.67;;;8.80;99.90;;;;;;5114740;28;20489;-87
2022/02/15 04:19:40;;;;;;;3.00;1.30;;;8.70;99.90;;;;;;5115325;28;20476;-87
2022/02/15 04:22:07;;;;;;;3.83;1.50;;;8.80;99.90;;;;;;5117022;28;20469;-86
2022/02/15 04:24:34;;;;;;;3.93;1.97;;;8.80;99.90;;;;;;5115347;28;20840;-86
2022/02/15 04:27:01;;;;;;;3.70;1.60;;;8.80;99.90;;;;;;5118772;28;20522;-87
2022/02/15 04:29:28;;;;;;;3.97;1.37;;;8.70;99.90;;;;;;5117280;28;20475;-86
2022/02/15 04:31:55;;;;;;;3.30;1.40;;;8.40;99.90;;;;;;5117636;28;20454;-86
2022/02/15 04:34:22;;;;;;;3.93;1.60;;;8.70;99.90;;;;;;5125140;28;20879;-86
2022/02/15 04:36:50;;;;;;;5.40;1.80;;;8.70;99.90;;;;;;5127011;28;20470;-86
2022/02/15 04:39:17;;;;;;;4.00;1.50;;;8.80;99.90;;;;;;5115220;28;21035;-87
2022/02/15 04:41:44;;;;;;;4.57;1.80;;;8.70;99.90;;;;;;5114965;28;20445;-87
2022/02/15 04:44:10;;;;;;;3.97;1.50;;;8.70;99.90;;;;;;5115319;28;20486;-87
2022/02/15 04:46:54;;;;;;;4.43;1.90;;;8.70;99.90;;;;;;5130929;28;20453;-87
2022/02/15 04:49:23;;;;;;;3.90;1.70;;;8.70;99.90;;;;;;5116112;28;20506;-88
2022/02/15 04:51:52;;;;;;;5.57;1.87;;;8.70;99.90;;;;;;5116036;28;20613;-87
2022/02/15 04:54:22;;;;;;;5.03;1.97;;;8.80;99.90;;;;;;5115556;28;20449;-87
2022/02/15 04:56:49;;;;;;;5.23;2.20;;;8.80;99.90;;;;;;5119525;28;20434;-88
2022/02/15 04:59:16;;;;;;;6.20;2.30;;;8.80;99.90;;;;;;5133114;28;20477;-87
2022/02/15 05:01:43;;;;;;;4.70;2.73;;;8.80;99.90;;;;;;5122456;28;20772;-87
2022/02/15 05:04:48;;;;;;;5.70;2.30;;;8.80;99.90;;;;;;5117199;28;21019;-87
2022/02/15 05:07:00;;;;;;;7.40;2.80;;;8.90;99.90;;;;;;5113839;28;20438;-87
2022/02/15 05:09:27;;;;;;;4.70;2.47;;;8.90;99.90;;;;;;5114535;28;20455;-87
2022/02/15 05:11:54;;;;;;;10.25;3.75;;;8.90;99.90;;;;;;5114501;28;20488;-87
2022/02/15 05:14:21;;;;;;;7.53;2.60;;;8.90;99.90;;;;;;5117874;28;20200;-87
2022/02/15 05:16:48;;;;;;;4.30;2.17;;;8.80;99.90;;;;;;5119103;28;20873;-87
2022/02/15 05:19:15;;;;;;;6.67;2.67;;;8.90;99.90;;;;;;5116036;28;21011;-88
2022/02/15 05:21:42;;;;;;;4.53;2.50;;;8.90;99.90;;;;;;5115717;28;20453;-87
2022/02/15 05:24:11;;;;;;;5.53;2.23;;;8.90;99.90;;;;;;5115220;28;20524;-87
2022/02/15 05:26:38;;;;;;;4.90;2.40;;;9.00;99.90;;;;;;5121550;28;20529;-87
2022/02/15 05:29:05;;;;;;;5.40;2.70;;;9.00;99.90;;;;;;5135259;28;20487;-87
2022/02/15 05:31:32;;;;;;;8.37;2.87;;;8.90;99.90;;;;;;5132618;28;20739;-87
2022/02/15 05:33:59;;;;;;;5.43;2.53;;;8.80;99.90;;;;;;5116255;28;20497;-86
2022/02/15 05:36:26;;;;;;;4.83;2.30;;;8.70;99.90;;;;;;5115956;28;20453;-86
2022/02/15 05:38:53;;;;;;;6.13;2.57;;;8.80;99.90;;;;;;5116602;28;20512;-87
2022/02/15 05:41:22;;;;;;;10.27;1.97;;;8.70;99.90;;;;;;5116385;28;20830;-87
2022/02/15 05:43:49;;;;;;;6.73;2.50;;;8.70;99.90;;;;;;5119154;28;20445;-87
2022/02/15 05:46:16;;;;;;;5.47;2.83;;;8.80;99.90;;;;;;5133323;28;20480;-87
2022/02/15 05:48:43;;;;;;;6.17;2.23;;;8.70;99.90;;;;;;5122537;28;20541;-87
2022/02/15 05:51:10;;;;;;;4.63;1.90;;;8.80;99.90;;;;;;5124644;28;20418;-87
2022/02/15 05:53:37;;;;;;;4.20;2.13;;;8.80;99.90;;;;;;5133236;28;20408;-87
2022/02/15 05:56:06;;;;;;;4.40;1.90;;;8.80;99.90;;;;;;5126123;28;20457;-87
2022/02/15 05:58:34;;;;;;;4.13;2.10;;;8.80;99.90;;;;;;5131496;28;20473;-88
2022/02/15 06:01:02;;;;;;;4.00;1.70;;;8.90;99.90;;;;;;5118940;28;20428;-88
2022/02/15 06:06:13;;;;;;;5.27;2.17;;;8.80;99.90;;;;;;5123850;28;20394;-88
2022/02/15 06:08:40;;;;;;;4.27;2.07;;;8.80;99.90;;;;;;5138900;28;20469;-87
2022/02/15 06:11:07;;;;;;;10.57;3.13;;;8.80;99.90;;;;;;5137318;28;20478;-88
2022/02/15 06:13:38;;;;;;;4.20;2.00;;;8.80;99.90;;;;;;5139540;28;20453;-87
2022/02/15 06:16:06;;;;;;;3.87;1.80;;;8.60;99.90;;;;;;5138840;28;20404;-87
2022/02/15 06:18:32;;;;;;;4.60;1.90;;;8.80;99.90;;;;;;5126198;28;20465;-87
2022/02/15 06:21:00;;;;;;;4.30;1.90;;;8.90;99.90;;;;;;5124788;28;20505;-88
2022/02/15 06:23:27;;;;;;;3.70;2.10;;;9.00;99.90;;;;;;5119417;28;20459;-88
2022/02/15 06:25:54;;;;;;;4.90;2.30;;;8.90;99.90;;;;;;5124138;28;20568;-88
2022/02/15 06:28:22;;;;;;;5.20;1.93;;;8.90;99.90;;;;;;5118918;28;20453;-88
2022/02/15 06:30:51;;;;;;;7.13;2.50;;;8.90;99.90;;;;;;5127132;28;20437;-88
2022/02/15 06:33:18;;;;;;;3.53;1.50;;;9.00;99.90;;;;;;5137407;28;20460;-88
2022/02/15 06:35:45;;;;;;;4.57;2.20;;;9.00;99.90;;;;;;5121233;28;20457;-88
2022/02/15 06:38:15;;;;;;;5.33;1.90;;;9.00;99.90;;;;;;5120561;28;20516;-89
2022/02/15 06:40:42;;;;;;;3.37;1.80;;;9.00;99.90;;;;;;5122217;28;20424;-89
2022/02/15 06:43:10;;;;;;;7.50;2.30;;;9.00;99.90;;;;;;5119454;28;20874;-87
2022/02/15 06:45:37;;;;;;;3.80;1.90;;;9.00;99.90;;;;;;5118272;28;20524;-88
2022/02/15 06:48:06;;;;;;;5.13;2.00;;;9.10;99.90;;;;;;5120587;28;20561;-87
2022/02/15 06:50:33;;;;;;;5.33;1.90;;;9.10;99.90;;;;;;5117324;28;20861;-87
2022/02/15 06:53:00;;;;;;;5.93;2.30;;;9.20;99.90;;;;;;5118393;28;20458;-86
2022/02/15 06:55:27;;;;;;;10.70;2.23;;;9.10;99.90;;;;;;5116583;28;20525;-87
2022/02/15 06:57:54;;;;;;;4.70;1.80;;;9.10;99.90;;;;;;5119135;28;20461;-86
2022/02/15 07:00:21;;;;;;;3.90;1.60;;;9.10;99.90;;;;;;5126344;28;20598;-87
2022/02/15 07:02:48;;;;;;;6.30;2.50;;;9.10;99.90;;;;;;5117990;28;20457;-87
2022/02/15 07:05:18;;;;;;;4.50;1.93;;;9.00;99.90;;;;;;5118710;28;20553;-88
2022/02/15 07:07:45;;;;;;;3.40;1.87;;;9.10;99.90;;;;;;5125562;28;20462;-88
2022/02/15 07:10:13;;;;;;;6.80;2.07;;;9.10;99.90;;;;;;5121689;28;20424;-88
2022/02/15 07:12:41;;;;;;;4.87;2.13;;;8.90;99.90;;;;;;5126867;28;20487;-88
2022/02/15 07:15:09;;;;;;;3.57;1.83;;;8.90;99.90;;;;;;5129630;28;20573;-88
2022/02/15 07:17:38;;;;;;;4.37;2.13;;;8.80;99.90;;;;;;5125402;28;20467;-88
2022/02/15 07:20:07;;;;;;;5.10;2.33;;;8.90;99.90;;;;;;5126924;28;20446;-89
2022/02/15 07:22:37;;;;;;;5.73;1.90;;;8.80;99.90;;;;;;5117088;28;20964;-88
2022/02/15 07:25:05;;;;;;;4.70;2.38;;;8.70;99.90;;;;;;5117194;28;20604;-88
2022/02/15 07:27:36;;;;;;;4.43;2.20;;;8.60;99.90;;;;;;5118781;28;20340;-88
2022/02/15 07:30:03;;;;;;;9.93;5.93;;;8.60;99.90;;;;;;5117891;28;20463;-88
2022/02/15 07:32:45;;;;;;;5.03;2.25;;;8.60;99.90;;;;;;5127624;28;20412;-88
2022/02/15 07:35:13;;;;;;;3.70;2.00;;;8.70;99.90;;;;;;5133743;28;20605;-88
2022/02/15 07:37:48;;;;;;;4.47;2.10;;;8.70;99.90;;;;;;5127097;28;20439;-89
2022/02/15 07:40:19;;;;;;;4.40;2.37;;;8.80;99.90;;;;;;5122867;28;20469;-89
2022/02/15 07:42:46;;;;;;;4.23;2.20;;;8.70;99.90;;;;;;5118295;28;20438;-89
2022/02/15 07:45:18;;;;;;;3.87;1.93;;;8.70;99.90;;;;;;5120050;28;20538;-89
2022/02/15 07:47:47;;;;;;;4.87;2.50;;;8.70;99.90;;;;;;5118483;28;20472;-89
2022/02/15 07:50:14;;;;;;;4.50;2.93;;;8.70;99.90;;;;;;5118204;28;20457;-89
2022/02/15 07:52:47;;;;;;;8.80;4.13;;;8.70;99.90;;;;;;5119439;28;20445;-90
2022/02/15 07:55:15;;;;;;;4.97;2.13;;;8.70;99.90;;;;;;5120560;28;20501;-91
2022/02/15 07:57:49;;;;;;;4.37;2.50;;;8.80;99.90;;;;;;5127500;28;20458;-89
2022/02/15 08:00:21;;;;;;;3.60;1.77;;;8.80;99.90;;;;;;5137153;28;20442;-89
2022/02/15 08:02:55;;;;;;;4.50;2.20;;;8.90;99.90;;;;;;5128006;28;20511;-89
2022/02/15 08:12:21;;;;;;;7.83;3.20;;;8.90;99.90;;;;;;5123465;28;20763;-86
2022/02/15 08:14:53;;;;;;;4.57;2.10;;;8.90;99.90;;;;;;5136256;28;20426;-86
2022/02/15 08:17:20;;;;;;;5.03;2.20;;;9.00;99.90;;;;;;5201653;22;20501;-87
2022/02/15 08:19:47;;;;;;;4.20;1.73;;;9.00;99.90;;;;;;5133052;28;20432;-88
2022/02/15 08:22:21;;;;;;;4.33;1.33;;;9.10;99.90;;;;;;5121152;28;20503;-88
2022/02/15 08:24:50;;;;;;;3.50;1.43;;;9.10;99.90;;;;;;5119678;28;20560;-89
2022/02/15 08:27:23;;;;;;;4.17;1.80;;;9.20;99.90;;;;;;5121421;28;20460;-87
2022/02/15 08:30:06;;;;;;;5.50;2.00;;;9.20;99.90;;;;;;5117920;28;20884;-88
2022/02/15 08:32:37;;;;;;;4.30;1.63;;;9.20;99.90;;;;;;5130407;28;20441;-89
2022/02/15 08:35:06;;;;;;;5.37;1.83;;;9.20;99.90;;;;;;5119509;28;20449;-87
2022/02/15 08:37:34;;;;;;;3.40;1.47;;;9.20;99.90;;;;;;5129842;28;20430;-89
2022/02/15 08:40:06;;;;;;;5.00;1.90;;;9.20;99.90;;;;;;5135854;28;20495;-88
2022/02/15 08:42:33;;;;;;;3.90;1.60;;;9.30;99.90;;;;;;5129955;28;20458;-87
2022/02/15 08:45:00;;;;;;;7.43;1.70;;;9.20;99.90;;;;;;5137487;22;20491;-87
2022/02/15 08:47:31;;;;;;;3.83;1.50;;;9.20;99.90;;;;;;5105278;28;20499;-87
2022/02/15 08:49:57;;;;;;;3.30;1.60;;;9.20;99.90;;;;;;5117246;28;20437;-87
2022/02/15 08:52:26;;;;;;;4.63;1.60;;;9.30;99.90;;;;;;5107572;28;20430;-89
2022/02/15 08:54:54;;;;;;;4.50;1.70;;;9.40;99.90;;;;;;5112404;28;20455;-89
2022/02/15 08:57:24;;;;;;;5.57;1.70;;;9.50;99.90;;;;;;5133050;28;20471;-87
2022/02/15 08:59:53;;;;;;;3.40;1.60;;;9.40;99.90;;;;;;5128867;28;20473;-88
2022/02/15 09:02:20;;;;;;;5.30;1.93;;;9.40;99.90;;;;;;5125381;28;20454;-88
2022/02/15 09:04:47;;;;;;;3.50;1.30;;;9.40;99.90;;;;;;5133212;28;20476;-88
2022/02/15 09:07:14;;;;;;;3.07;1.10;;;9.40;99.90;;;;;;5133570;28;20929;-87
2022/02/15 09:09:44;;;;;;;6.93;1.67;;;9.40;99.90;;;;;;5130582;28;20426;-89
2022/02/15 09:12:11;;;;;;;3.50;1.33;;;9.50;99.90;;;;;;5127777;28;20550;-87
2022/02/15 09:14:40;;;;;;;3.30;1.10;;;9.50;99.90;;;;;;5126778;28;20524;-88
2022/02/15 09:17:07;;;;;;;2.70;1.07;;;9.60;99.90;;;;;;5126790;28;20437;-90
2022/02/15 09:19:34;;;;;;;3.83;1.30;;;9.70;99.90;;;;;;5127408;28;20471;-88
2022/02/15 09:22:03;;;;;;;3.03;1.27;;;9.90;99.90;;;;;;5131403;28;20799;-89
2022/02/15 09:24:30;;;;;;;4.40;1.20;;;9.90;99.90;;;;;;5132523;28;20526;-88
2022/02/15 09:26:58;;;;;;;2.97;1.13;;;9.70;99.90;;;;;;5132221;28;20501;-87
2022/02/15 09:29:25;;;;;;;3.10;1.20;;;9.60;99.90;;;;;;5132799;28;20491;-88
2022/02/15 09:31:53;;;;;;;2.87;1.20;;;9.60;99.90;;;;;;5132826;28;20435;-88
2022/02/15 09:34:23;;;;;;;3.90;1.40;;;9.50;99.90;;;;;;5135402;28;20434;-88
2022/02/15 09:36:50;;;;;;;3.83;1.40;;;9.60;99.90;;;;;;5136734;28;20472;-88
2022/02/15 09:39:17;;;;;;;4.87;1.53;;;9.60;99.90;;;;;;5139074;28;20445;-89
2022/02/15 09:41:45;;;;;;;4.50;1.50;;;9.60;99.90;;;;;;5139508;28;20454;-88
2022/02/15 09:44:12;;;;;;;3.40;1.60;;;9.50;99.90;;;;;;5135723;28;20454;-88
2022/02/15 09:46:42;;;;;;;3.63;1.63;;;9.60;99.90;;;;;;5131426;28;20481;-88
2022/02/15 09:49:48;;;;;;;4.03;1.93;;;9.70;99.90;;;;;;5137896;28;20442;-86
2022/02/15 09:51:59;;;;;;;3.90;1.90;;;9.70;99.90;;;;;;5134559;28;20450;-87
2022/02/15 09:54:30;;;;;;;3.20;1.60;;;9.70;99.90;;;;;;5129218;28;20480;-89
2022/02/15 09:57:03;;;;;;;3.70;2.03;;;9.80;99.90;;;;;;5127945;28;20433;-89
2022/02/15 09:59:30;;;;;;;3.53;2.00;;;9.90;99.90;;;;;;5129299;28;20471;-89
2022/02/15 10:01:58;;;;;;;4.00;1.50;;;10.10;99.90;;;;;;5128475;28;20440;-89
2022/02/15 10:04:33;;;;;;;3.70;1.60;;;10.30;99.90;;;;;;5128244;28;20480;-89
2022/02/15 10:07:07;;;;;;;2.90;1.50;;;10.40;99.90;;;;;;5130196;28;20544;-91
2022/02/15 10:09:34;;;;;;;3.93;1.67;;;10.50;99.90;;;;;;5129814;28;20434;-90
2022/02/15 10:12:06;;;;;;;4.83;1.77;;;10.50;99.90;;;;;;5131403;28;20484;-88
2022/02/15 10:14:36;;;;;;;4.23;1.70;;;10.30;99.90;;;;;;5136977;28;20532;-89
2022/02/15 10:17:08;;;;;;;3.60;1.80;;;10.30;99.90;;;;;;5137860;28;20438;-89
2022/02/15 10:19:37;;;;;;;7.80;2.07;;;10.30;99.90;;;;;;5129415;28;20419;-89
2022/02/15 10:22:06;;;;;;;6.50;1.80;;;10.30;99.90;;;;;;5128536;28;20461;-89
2022/02/15 10:24:34;;;;;;;3.93;1.90;;;10.30;99.90;;;;;;5138218;28;20472;-88
2022/02/15 10:27:05;;;;;;;4.20;1.67;;;10.50;99.90;;;;;;5133282;28;20486;-88
2022/02/15 10:29:34;;;;;;;4.03;1.60;;;10.40;99.90;;;;;;5129959;28;20418;-87
2022/02/15 10:32:03;;;;;;;4.40;1.63;;;10.50;99.90;;;;;;5127988;28;20460;-88
2022/02/15 10:34:30;;;;;;;3.30;1.70;;;10.60;99.90;;;;;;5128534;28;20481;-89
2022/02/15 10:37:04;;;;;;;3.20;1.67;;;10.70;99.90;;;;;;5127191;28;20420;-88
2022/02/15 10:39:39;;;;;;;6.00;1.50;;;10.70;99.90;;;;;;5129279;28;20434;-88
2022/02/15 10:42:08;;;;;;;7.33;1.67;;;10.60;99.90;;;;;;5128486;28;20487;-90
2022/02/15 10:44:57;;;;;;;4.50;1.80;;;10.50;99.90;;;;;;5126094;28;20990;-89
2022/02/15 10:47:25;;;;;;;4.30;1.67;;;10.80;99.90;;;;;;5130405;28;20859;-88
2022/02/15 10:49:55;;;;;;;4.13;1.47;;;10.80;99.90;;;;;;5128254;28;20795;-88
2022/02/15 10:52:23;;;;;;;5.00;2.10;;;10.60;99.90;;;;;;5131027;28;21013;-88
2022/02/15 10:54:50;;;;;;;4.40;1.90;;;10.60;99.90;;;;;;5124735;28;20501;-90
2022/02/15 10:57:18;;;;;;;4.80;1.40;;;10.50;99.90;;;;;;5133284;28;20510;-90
2022/02/15 10:59:52;;;;;;;4.50;1.60;;;10.50;99.90;;;;;;5129706;28;20605;-89
2022/02/15 11:02:22;;;;;;;5.00;1.60;;;10.40;99.90;;;;;;5130759;28;20463;-89
2022/02/15 11:04:50;;;;;;;4.90;1.70;;;10.50;99.90;;;;;;5128260;28;20473;-88
2022/02/15 11:07:18;;;;;;;5.37;2.43;;;10.30;99.90;;;;;;5127088;28;20509;-89
2022/02/15 11:09:59;;;;;;;4.03;1.40;;;10.20;99.90;;;;;;5136077;28;20472;-88
2022/02/15 11:12:33;;;;;;;3.83;1.40;;;10.30;99.90;;;;;;5139966;28;20410;-89
2022/02/15 11:15:02;;;;;;;4.70;1.50;;;10.30;99.90;;;;;;5136369;28;20792;-89
2022/02/15 11:17:31;;;;;;;3.73;1.60;;;10.40;99.90;;;;;;5130122;28;20458;-89
2022/02/15 11:20:02;;;;;;;3.40;1.80;;;10.30;99.90;;;;;;5129437;28;20440;-88
2022/02/15 11:22:29;;;;;;;5.90;1.53;;;10.40;99.90;;;;;;5125834;28;20407;-88
2022/02/15 11:24:58;;;;;;;7.57;3.10;;;10.40;99.90;;;;;;5125615;28;20436;-88
2022/02/15 11:27:25;;;;;;;3.33;1.23;;;10.30;99.90;;;;;;5125222;28;20524;-89
2022/02/15 11:29:55;;;;;;;5.53;1.70;;;10.40;99.90;;;;;;5129954;28;20508;-88
2022/02/15 11:32:27;;;;;;;6.20;1.33;;;10.40;99.90;;;;;;5132410;28;20438;-88
2022/02/15 11:34:55;;;;;;;9.47;3.13;;;10.50;99.90;;;;;;5128055;28;20481;-88
2022/02/15 11:37:25;;;;;;;2.73;1.17;;;10.50;99.90;;;;;;5129379;28;20442;-88
2022/02/15 11:40:09;;;;;;;3.80;1.73;;;10.50;99.90;;;;;;5131309;28;20385;-88
2022/02/15 11:42:44;;;;;;;5.73;1.90;;;10.40;99.90;;;;;;5138490;28;20483;-89
2022/02/15 11:45:25;;;;;;;4.03;1.53;;;10.30;99.90;;;;;;5132011;28;20488;-88
2022/02/15 11:47:52;;;;;;;2.83;1.07;;;10.60;99.90;;;;;;5129389;28;20441;-89
2022/02/15 11:50:47;;;;;;;4.47;1.90;;;10.60;99.90;;;;;;5126569;28;20445;-89
2022/02/15 11:53:16;;;;;;;6.90;1.77;;;10.50;99.90;;;;;;5126629;28;20457;-88
2022/02/15 11:55:44;;;;;;;2.93;1.10;;;10.70;99.60;;;;;;5133945;28;20457;-89
2022/02/15 11:58:17;;;;;;;4.40;2.00;;;10.70;99.60;;;;;;5128485;28;20482;-89
2022/02/15 12:00:49;;;;;;;4.10;1.50;;;10.60;99.40;;;;;;5128368;28;20473;-87
2022/02/15 12:03:23;;;;;;;3.63;1.13;;;10.60;99.00;;;;;;5125573;28;20494;-88
2022/02/15 12:05:55;;;;;;;3.50;1.30;;;10.70;98.20;;;;;;5125011;28;20490;-89
2022/02/15 12:08:24;;;;;;;6.83;2.27;;;10.80;98.10;;;;;;5123769;28;20454;-88
2022/02/15 12:10:54;;;;;;;5.20;1.80;;;10.90;97.80;;;;;;5129131;28;20449;-87
2022/02/15 12:13:22;;;;;;;3.43;1.27;;;11.00;97.60;;;;;;5128472;28;20429;-89
2022/02/15 12:15:50;;;;;;;4.40;1.30;;;11.20;97.10;;;;;;5128717;28;20458;-88
2022/02/15 12:18:28;;;;;;;4.67;1.53;;;11.20;97.10;;;;;;5130818;28;20513;-89
2022/02/15 12:20:57;;;;;;;3.87;1.43;;;11.10;97.20;;;;;;5129927;28;20458;-87
2022/02/15 12:23:25;;;;;;;2.93;1.23;;;11.00;97.40;;;;;;5129533;28;20472;-89
2022/02/15 12:25:52;;;;;;;4.43;1.40;;;11.00;97.60;;;;;;5126591;28;20481;-88
2022/02/15 12:28:23;;;;;;;7.27;2.93;;;11.10;97.30;;;;;;5128637;28;20567;-89
2022/02/15 12:30:51;;;;;;;5.77;1.90;;;11.00;97.40;;;;;;5128950;28;20450;-89
2022/02/15 12:33:19;;;;;;;12.80;1.80;;;11.00;97.50;;;;;;5127883;28;20434;-88
2022/02/15 12:35:54;;;;;;;4.57;2.37;;;11.10;97.70;;;;;;5128365;28;20466;-88
2022/02/15 12:38:23;;;;;;;5.87;1.90;;;11.20;97.60;;;;;;5128945;28;20437;-88
2022/02/15 12:40:50;;;;;;;4.03;1.90;;;11.10;97.60;;;;;;5129593;28;20441;-88
2022/02/15 12:43:18;;;;;;;6.73;1.60;;;11.10;97.90;;;;;;5129449;28;20412;-89
2022/02/15 12:45:46;;;;;;;3.23;1.33;;;11.10;98.10;;;;;;5129414;28;20882;-87
2022/02/15 12:48:13;;;;;;;4.10;1.77;;;11.10;98.30;;;;;;5128464;28;20442;-88
2022/02/15 12:50:41;;;;;;;4.20;1.90;;;11.00;98.40;;;;;;5124548;28;20437;-89
2022/02/15 12:53:07;;;;;;;4.40;1.77;;;11.10;98.50;;;;;;5125370;28;20424;-87
2022/02/15 12:55:39;;;;;;;3.60;1.77;;;11.00;98.80;;;;;;5131908;28;20487;-88
2022/02/15 12:58:07;;;;;;;3.73;1.60;;;10.90;99.30;;;;;;5133252;28;20450;-89
2022/02/15 13:00:34;;;;;;;3.70;1.60;;;11.00;99.80;;;;;;5135750;28;20437;-89
2022/02/15 13:03:04;;;;;;;4.87;1.93;;;11.00;99.90;;;;;;5134572;28;20444;-87
2022/02/15 13:05:33;;;;;;;3.80;1.60;;;11.00;99.80;;;;;;5137194;28;20491;-88
2022/02/15 13:08:00;;;;;;;3.77;1.43;;;11.10;99.70;;;;;;5136777;28;20477;-88
2022/02/15 13:10:27;;;;;;;3.20;1.60;;;11.00;99.80;;;;;;5138274;28;20500;-89
2022/02/15 13:13:09;;;;;;;3.50;1.70;;;10.80;99.90;;;;;;5134915;28;20426;-88
2022/02/15 13:15:36;;;;;;;5.70;1.77;;;10.80;99.90;;;;;;5137837;28;20444;-90